sensor_id;sensor_type;location;lat;lon;timestamp;P1;durP1;ratioP1;P2;durP2;ratioP2
41275;SDS011;27010;47.718;12.912;2023-07-29T00:02:42;3.47;;;2.00;;
41275;SDS011;27010;47.718;12.912;2023-07-29T00:05:44;3.23;;;1.97;;
41275;SDS011;27010;47.718;12.912;2023-07-29T00:08:48;2.50;;;1.80;;
41275;SDS011;27010;47.718;12.912;2023-07-29T00:11:50;3.13;;;2.10;;
41275;SDS011;27010;47.718;12.912;2023-07-29T00:14:52;2.20;;;1.87;;
41275;SDS011;27010;47.718;12.912;2023-07-29T00:17:54;2.00;;;1.80;;
41275;SDS011;27010;47.718;12.912;2023-07-29T00:20:57;2.17;;;1.97;;
41275;SDS011;27010;47.718;12.912;2023-07-29T00:23:59;2.20;;;2.00;;
41275;SDS011;27010;47.718;12.912;2023-07-29T00:27:02;3.43;;;2.20;;
41275;SDS011;27010;47.718;12.912;2023-07-29T00:30:05;2.40;;;1.90;;
41275;SDS011;27010;47.718;12.912;2023-07-29T00:33:07;4.60;;;1.90;;
41275;SDS011;27010;47.718;12.912;2023-07-29T00:36:10;3.53;;;1.90;;
41275;SDS011;27010;47.718;12.912;2023-07-29T00:39:11;2.27;;;1.87;;
41275;SDS011;27010;47.718;12.912;2023-07-29T00:42:14;2.20;;;1.80;;
41275;SDS011;27010;47.718;12.912;2023-07-29T00:45:16;3.20;;;1.90;;
41275;SDS011;27010;47.718;12.912;2023-07-29T00:48:18;2.10;;;1.80;;
41275;SDS011;27010;47.718;12.912;2023-07-29T00:51:20;2.47;;;1.90;;
41275;SDS011;27010;47.718;12.912;2023-07-29T00:54:22;3.17;;;2.00;;
41275;SDS011;27010;47.718;12.912;2023-07-29T00:57:24;3.80;;;2.43;;
41275;SDS011;27010;47.718;12.912;2023-07-29T01:00:27;2.50;;;1.90;;
41275;SDS011;27010;47.718;12.912;2023-07-29T01:03:29;2.73;;;2.00;;
41275;SDS011;27010;47.718;12.912;2023-07-29T01:17:15;3.20;;;2.10;;
41275;SDS011;27010;47.718;12.912;2023-07-29T01:20:24;3.23;;;1.70;;
41275;SDS011;27010;47.718;12.912;2023-07-29T01:23:30;3.30;;;2.00;;
41275;SDS011;27010;47.718;12.912;2023-07-29T01:26:33;3.13;;;2.10;;
41275;SDS011;27010;47.718;12.912;2023-07-29T01:29:36;3.30;;;2.10;;
41275;SDS011;27010;47.718;12.912;2023-07-29T01:32:40;3.30;;;1.60;;
41275;SDS011;27010;47.718;12.912;2023-07-29T01:36:17;2.90;;;1.80;;
41275;SDS011;27010;47.718;12.912;2023-07-29T01:39:21;1.90;;;1.70;;
41275;SDS011;27010;47.718;12.912;2023-07-29T01:42:24;4.83;;;2.17;;
41275;SDS011;27010;47.718;12.912;2023-07-29T01:45:30;2.20;;;1.90;;
41275;SDS011;27010;47.718;12.912;2023-07-29T01:48:37;2.50;;;1.93;;
41275;SDS011;27010;47.718;12.912;2023-07-29T01:51:39;2.70;;;2.27;;
41275;SDS011;27010;47.718;12.912;2023-07-29T01:54:41;2.33;;;2.00;;
41275;SDS011;27010;47.718;12.912;2023-07-29T01:57:43;1.90;;;1.50;;
41275;SDS011;27010;47.718;12.912;2023-07-29T02:00:46;6.33;;;2.07;;
41275;SDS011;27010;47.718;12.912;2023-07-29T02:03:48;2.80;;;2.20;;
41275;SDS011;27010;47.718;12.912;2023-07-29T02:06:56;2.53;;;2.30;;
41275;SDS011;27010;47.718;12.912;2023-07-29T02:09:58;3.17;;;2.40;;
41275;SDS011;27010;47.718;12.912;2023-07-29T02:13:00;3.23;;;1.90;;
41275;SDS011;27010;47.718;12.912;2023-07-29T02:16:02;2.60;;;2.03;;
41275;SDS011;27010;47.718;12.912;2023-07-29T02:19:05;3.93;;;2.50;;
41275;SDS011;27010;47.718;12.912;2023-07-29T02:22:07;2.47;;;1.87;;
41275;SDS011;27010;47.718;12.912;2023-07-29T02:25:10;6.07;;;2.90;;
41275;SDS011;27010;47.718;12.912;2023-07-29T02:28:12;2.27;;;2.00;;
41275;SDS011;27010;47.718;12.912;2023-07-29T02:31:15;3.87;;;2.07;;
41275;SDS011;27010;47.718;12.912;2023-07-29T02:34:18;2.30;;;2.10;;
41275;SDS011;27010;47.718;12.912;2023-07-29T02:37:20;2.33;;;1.90;;
41275;SDS011;27010;47.718;12.912;2023-07-29T02:40:22;11.33;;;3.67;;
41275;SDS011;27010;47.718;12.912;2023-07-29T02:43:24;3.83;;;2.00;;
41275;SDS011;27010;47.718;12.912;2023-07-29T02:46:26;5.07;;;2.07;;
41275;SDS011;27010;47.718;12.912;2023-07-29T02:49:28;2.03;;;1.60;;
41275;SDS011;27010;47.718;12.912;2023-07-29T02:52:31;2.83;;;2.43;;
41275;SDS011;27010;47.718;12.912;2023-07-29T02:55:33;3.77;;;2.40;;
41275;SDS011;27010;47.718;12.912;2023-07-29T02:58:35;4.53;;;2.30;;
41275;SDS011;27010;47.718;12.912;2023-07-29T03:01:38;3.40;;;2.07;;
41275;SDS011;27010;47.718;12.912;2023-07-29T03:04:40;2.67;;;1.70;;
41275;SDS011;27010;47.718;12.912;2023-07-29T03:07:42;2.43;;;2.00;;
41275;SDS011;27010;47.718;12.912;2023-07-29T03:10:44;2.10;;;1.90;;
41275;SDS011;27010;47.718;12.912;2023-07-29T03:13:46;3.17;;;2.20;;
41275;SDS011;27010;47.718;12.912;2023-07-29T03:16:48;2.47;;;1.90;;
41275;SDS011;27010;47.718;12.912;2023-07-29T03:19:51;4.30;;;1.90;;
41275;SDS011;27010;47.718;12.912;2023-07-29T03:22:53;2.93;;;2.00;;
41275;SDS011;27010;47.718;12.912;2023-07-29T03:25:56;2.67;;;2.23;;
41275;SDS011;27010;47.718;12.912;2023-07-29T03:29:00;2.53;;;1.80;;
41275;SDS011;27010;47.718;12.912;2023-07-29T03:32:01;2.83;;;2.40;;
41275;SDS011;27010;47.718;12.912;2023-07-29T03:35:04;4.70;;;2.00;;
41275;SDS011;27010;47.718;12.912;2023-07-29T03:38:06;3.07;;;1.83;;
41275;SDS011;27010;47.718;12.912;2023-07-29T03:41:09;4.60;;;1.97;;
41275;SDS011;27010;47.718;12.912;2023-07-29T03:44:11;2.80;;;2.03;;
41275;SDS011;27010;47.718;12.912;2023-07-29T03:47:13;2.27;;;1.77;;
41275;SDS011;27010;47.718;12.912;2023-07-29T03:50:15;2.20;;;2.00;;
41275;SDS011;27010;47.718;12.912;2023-07-29T03:53:17;3.20;;;2.10;;
41275;SDS011;27010;47.718;12.912;2023-07-29T03:56:19;2.53;;;1.83;;
41275;SDS011;27010;47.718;12.912;2023-07-29T03:59:21;3.53;;;1.80;;
41275;SDS011;27010;47.718;12.912;2023-07-29T04:02:24;2.53;;;1.70;;
41275;SDS011;27010;47.718;12.912;2023-07-29T04:05:26;5.13;;;2.03;;
41275;SDS011;27010;47.718;12.912;2023-07-29T04:08:28;2.00;;;1.57;;
41275;SDS011;27010;47.718;12.912;2023-07-29T04:11:30;3.77;;;2.13;;
41275;SDS011;27010;47.718;12.912;2023-07-29T04:14:32;4.03;;;2.20;;
41275;SDS011;27010;47.718;12.912;2023-07-29T04:17:35;4.77;;;1.90;;
41275;SDS011;27010;47.718;12.912;2023-07-29T04:20:37;2.00;;;1.60;;
41275;SDS011;27010;47.718;12.912;2023-07-29T04:23:39;2.67;;;1.83;;
41275;SDS011;27010;47.718;12.912;2023-07-29T04:26:41;4.33;;;1.70;;
41275;SDS011;27010;47.718;12.912;2023-07-29T04:29:43;2.40;;;1.83;;
41275;SDS011;27010;47.718;12.912;2023-07-29T04:32:46;3.83;;;2.63;;
41275;SDS011;27010;47.718;12.912;2023-07-29T04:35:50;2.43;;;1.70;;
41275;SDS011;27010;47.718;12.912;2023-07-29T04:38:52;2.07;;;1.27;;
41275;SDS011;27010;47.718;12.912;2023-07-29T04:41:54;2.00;;;1.77;;
41275;SDS011;27010;47.718;12.912;2023-07-29T04:44:56;3.17;;;1.90;;
41275;SDS011;27010;47.718;12.912;2023-07-29T04:47:59;3.57;;;1.80;;
41275;SDS011;27010;47.718;12.912;2023-07-29T04:51:02;2.03;;;1.40;;
41275;SDS011;27010;47.718;12.912;2023-07-29T04:54:04;1.80;;;1.50;;
41275;SDS011;27010;47.718;12.912;2023-07-29T04:57:09;1.80;;;1.60;;
41275;SDS011;27010;47.718;12.912;2023-07-29T05:00:11;3.00;;;1.67;;
41275;SDS011;27010;47.718;12.912;2023-07-29T05:03:13;3.27;;;1.73;;
41275;SDS011;27010;47.718;12.912;2023-07-29T05:06:15;2.23;;;1.80;;
41275;SDS011;27010;47.718;12.912;2023-07-29T05:09:18;2.57;;;1.60;;
41275;SDS011;27010;47.718;12.912;2023-07-29T05:12:21;2.73;;;1.93;;
41275;SDS011;27010;47.718;12.912;2023-07-29T05:15:23;2.40;;;1.80;;
41275;SDS011;27010;47.718;12.912;2023-07-29T05:18:25;3.93;;;1.73;;
41275;SDS011;27010;47.718;12.912;2023-07-29T05:21:27;4.47;;;1.70;;
41275;SDS011;27010;47.718;12.912;2023-07-29T05:24:29;5.57;;;1.80;;
41275;SDS011;27010;47.718;12.912;2023-07-29T05:27:32;2.40;;;1.60;;
41275;SDS011;27010;47.718;12.912;2023-07-29T05:30:35;1.63;;;1.47;;
41275;SDS011;27010;47.718;12.912;2023-07-29T05:33:39;2.67;;;1.90;;
41275;SDS011;27010;47.718;12.912;2023-07-29T05:36:41;1.90;;;1.47;;
41275;SDS011;27010;47.718;12.912;2023-07-29T05:39:43;3.20;;;1.50;;
41275;SDS011;27010;47.718;12.912;2023-07-29T05:42:45;1.80;;;1.50;;
41275;SDS011;27010;47.718;12.912;2023-07-29T05:45:47;3.83;;;1.60;;
41275;SDS011;27010;47.718;12.912;2023-07-29T05:48:49;2.67;;;1.87;;
41275;SDS011;27010;47.718;12.912;2023-07-29T05:51:51;4.40;;;1.73;;
41275;SDS011;27010;47.718;12.912;2023-07-29T05:54:54;3.27;;;1.67;;
41275;SDS011;27010;47.718;12.912;2023-07-29T05:57:56;2.25;;;1.60;;
41275;SDS011;27010;47.718;12.912;2023-07-29T06:00:59;1.35;;;1.25;;
41275;SDS011;27010;47.718;12.912;2023-07-29T06:04:01;3.58;;;1.30;;
41275;SDS011;27010;47.718;12.912;2023-07-29T06:07:04;2.28;;;1.85;;
41275;SDS011;27010;47.718;12.912;2023-07-29T06:10:07;2.47;;;1.42;;
41275;SDS011;27010;47.718;12.912;2023-07-29T06:13:10;2.03;;;1.50;;
41275;SDS011;27010;47.718;12.912;2023-07-29T06:16:11;2.43;;;1.50;;
41275;SDS011;27010;47.718;12.912;2023-07-29T06:19:13;3.40;;;1.60;;
41275;SDS011;27010;47.718;12.912;2023-07-29T06:22:16;2.47;;;1.83;;
41275;SDS011;27010;47.718;12.912;2023-07-29T06:25:18;1.70;;;1.37;;
41275;SDS011;27010;47.718;12.912;2023-07-29T06:28:20;1.65;;;1.48;;
41275;SDS011;27010;47.718;12.912;2023-07-29T06:31:22;2.05;;;1.35;;
41275;SDS011;27010;47.718;12.912;2023-07-29T06:34:27;2.80;;;1.40;;
41275;SDS011;27010;47.718;12.912;2023-07-29T06:37:29;2.13;;;1.50;;
41275;SDS011;27010;47.718;12.912;2023-07-29T06:40:31;3.95;;;1.65;;
41275;SDS011;27010;47.718;12.912;2023-07-29T06:43:32;1.65;;;1.45;;
41275;SDS011;27010;47.718;12.912;2023-07-29T06:46:35;1.50;;;1.40;;
41275;SDS011;27010;47.718;12.912;2023-07-29T06:49:37;2.03;;;1.40;;
41275;SDS011;27010;47.718;12.912;2023-07-29T06:52:39;2.95;;;1.45;;
41275;SDS011;27010;47.718;12.912;2023-07-29T06:55:42;2.42;;;1.50;;
41275;SDS011;27010;47.718;12.912;2023-07-29T06:58:44;2.05;;;1.67;;
41275;SDS011;27010;47.718;12.912;2023-07-29T07:01:46;2.30;;;1.58;;
41275;SDS011;27010;47.718;12.912;2023-07-29T07:04:48;2.40;;;1.67;;
41275;SDS011;27010;47.718;12.912;2023-07-29T07:07:51;3.10;;;1.42;;
41275;SDS011;27010;47.718;12.912;2023-07-29T07:10:53;1.60;;;1.50;;
41275;SDS011;27010;47.718;12.912;2023-07-29T07:13:55;1.50;;;1.38;;
41275;SDS011;27010;47.718;12.912;2023-07-29T07:16:57;2.08;;;1.50;;
41275;SDS011;27010;47.718;12.912;2023-07-29T07:19:59;1.42;;;1.30;;
41275;SDS011;27010;47.718;12.912;2023-07-29T07:23:01;1.98;;;1.20;;
41275;SDS011;27010;47.718;12.912;2023-07-29T07:26:03;1.80;;;1.17;;
41275;SDS011;27010;47.718;12.912;2023-07-29T07:29:05;1.85;;;1.40;;
41275;SDS011;27010;47.718;12.912;2023-07-29T07:32:07;4.35;;;1.58;;
41275;SDS011;27010;47.718;12.912;2023-07-29T07:35:09;1.40;;;1.30;;
41275;SDS011;27010;47.718;12.912;2023-07-29T07:38:12;1.45;;;1.35;;
41275;SDS011;27010;47.718;12.912;2023-07-29T07:41:14;3.05;;;1.55;;
41275;SDS011;27010;47.718;12.912;2023-07-29T07:44:17;1.48;;;1.30;;
41275;SDS011;27010;47.718;12.912;2023-07-29T07:47:21;1.45;;;1.20;;
41275;SDS011;27010;47.718;12.912;2023-07-29T07:50:29;2.72;;;1.20;;
41275;SDS011;27010;47.718;12.912;2023-07-29T07:53:32;3.53;;;1.33;;
41275;SDS011;27010;47.718;12.912;2023-07-29T07:56:37;3.40;;;2.63;;
41275;SDS011;27010;47.718;12.912;2023-07-29T07:59:40;1.58;;;1.45;;
41275;SDS011;27010;47.718;12.912;2023-07-29T08:02:43;2.00;;;1.15;;
41275;SDS011;27010;47.718;12.912;2023-07-29T08:05:46;1.40;;;1.00;;
41275;SDS011;27010;47.718;12.912;2023-07-29T08:08:48;1.63;;;1.35;;
41275;SDS011;27010;47.718;12.912;2023-07-29T08:11:51;3.00;;;1.55;;
41275;SDS011;27010;47.718;12.912;2023-07-29T08:14:53;3.58;;;1.60;;
41275;SDS011;27010;47.718;12.912;2023-07-29T08:17:56;2.42;;;1.60;;
41275;SDS011;27010;47.718;12.912;2023-07-29T08:20:58;1.40;;;1.25;;
41275;SDS011;27010;47.718;12.912;2023-07-29T08:24:02;1.75;;;1.33;;
41275;SDS011;27010;47.718;12.912;2023-07-29T08:27:05;1.50;;;1.40;;
41275;SDS011;27010;47.718;12.912;2023-07-29T08:30:07;1.85;;;1.60;;
41275;SDS011;27010;47.718;12.912;2023-07-29T08:33:10;1.90;;;1.63;;
41275;SDS011;27010;47.718;12.912;2023-07-29T08:36:16;3.03;;;1.80;;
41275;SDS011;27010;47.718;12.912;2023-07-29T08:39:18;1.55;;;1.45;;
41275;SDS011;27010;47.718;12.912;2023-07-29T08:42:20;2.45;;;1.25;;
41275;SDS011;27010;47.718;12.912;2023-07-29T08:45:22;1.50;;;1.33;;
41275;SDS011;27010;47.718;12.912;2023-07-29T08:48:36;2.22;;;1.80;;
41275;SDS011;27010;47.718;12.912;2023-07-29T08:51:42;2.03;;;1.50;;
41275;SDS011;27010;47.718;12.912;2023-07-29T08:54:44;1.83;;;1.45;;
41275;SDS011;27010;47.718;12.912;2023-07-29T08:57:46;2.38;;;1.55;;
41275;SDS011;27010;47.718;12.912;2023-07-29T09:00:49;2.08;;;1.60;;
41275;SDS011;27010;47.718;12.912;2023-07-29T09:03:51;1.60;;;1.50;;
41275;SDS011;27010;47.718;12.912;2023-07-29T09:06:54;1.77;;;1.38;;
41275;SDS011;27010;47.718;12.912;2023-07-29T09:09:57;3.35;;;2.00;;
41275;SDS011;27010;47.718;12.912;2023-07-29T09:13:00;3.10;;;1.58;;
41275;SDS011;27010;47.718;12.912;2023-07-29T09:16:05;2.35;;;1.30;;
41275;SDS011;27010;47.718;12.912;2023-07-29T09:19:07;2.25;;;1.67;;
41275;SDS011;27010;47.718;12.912;2023-07-29T09:22:16;3.20;;;1.75;;
41275;SDS011;27010;47.718;12.912;2023-07-29T09:25:26;2.88;;;1.80;;
41275;SDS011;27010;47.718;12.912;2023-07-29T09:28:38;3.05;;;1.42;;
41275;SDS011;27010;47.718;12.912;2023-07-29T09:31:41;3.20;;;1.58;;
41275;SDS011;27010;47.718;12.912;2023-07-29T09:34:43;4.07;;;1.77;;
41275;SDS011;27010;47.718;12.912;2023-07-29T09:37:45;3.42;;;1.40;;
41275;SDS011;27010;47.718;12.912;2023-07-29T09:40:47;1.75;;;1.40;;
41275;SDS011;27010;47.718;12.912;2023-07-29T09:43:55;2.97;;;1.40;;
41275;SDS011;27010;47.718;12.912;2023-07-29T09:47:01;1.98;;;1.75;;
41275;SDS011;27010;47.718;12.912;2023-07-29T09:50:03;4.32;;;1.80;;
41275;SDS011;27010;47.718;12.912;2023-07-29T09:53:05;2.33;;;1.52;;
41275;SDS011;27010;47.718;12.912;2023-07-29T09:56:08;3.92;;;1.98;;
41275;SDS011;27010;47.718;12.912;2023-07-29T09:59:11;2.67;;;1.27;;
41275;SDS011;27010;47.718;12.912;2023-07-29T10:02:15;1.45;;;1.20;;
41275;SDS011;27010;47.718;12.912;2023-07-29T10:05:18;4.00;;;1.42;;
41275;SDS011;27010;47.718;12.912;2023-07-29T10:08:22;2.13;;;1.92;;
41275;SDS011;27010;47.718;12.912;2023-07-29T10:11:25;1.55;;;1.45;;
41275;SDS011;27010;47.718;12.912;2023-07-29T10:14:27;2.38;;;1.80;;
41275;SDS011;27010;47.718;12.912;2023-07-29T10:17:30;2.00;;;1.58;;
41275;SDS011;27010;47.718;12.912;2023-07-29T10:20:33;1.40;;;1.20;;
41275;SDS011;27010;47.718;12.912;2023-07-29T10:23:37;1.92;;;1.60;;
41275;SDS011;27010;47.718;12.912;2023-07-29T10:26:40;1.70;;;1.50;;
41275;SDS011;27010;47.718;12.912;2023-07-29T10:29:45;2.15;;;1.52;;
41275;SDS011;27010;47.718;12.912;2023-07-29T10:32:48;1.45;;;1.30;;
41275;SDS011;27010;47.718;12.912;2023-07-29T10:35:51;1.35;;;1.25;;
41275;SDS011;27010;47.718;12.912;2023-07-29T10:38:54;2.42;;;1.42;;
41275;SDS011;27010;47.718;12.912;2023-07-29T10:42:00;2.53;;;1.85;;
41275;SDS011;27010;47.718;12.912;2023-07-29T10:45:19;3.05;;;2.17;;
41275;SDS011;27010;47.718;12.912;2023-07-29T10:51:37;1.60;;;1.33;;
41275;SDS011;27010;47.718;12.912;2023-07-29T10:54:42;2.88;;;1.50;;
41275;SDS011;27010;47.718;12.912;2023-07-29T10:57:48;1.40;;;1.30;;
41275;SDS011;27010;47.718;12.912;2023-07-29T11:00:50;2.63;;;1.45;;
41275;SDS011;27010;47.718;12.912;2023-07-29T11:07:45;1.60;;;1.50;;
41275;SDS011;27010;47.718;12.912;2023-07-29T11:10:57;2.85;;;1.75;;
41275;SDS011;27010;47.718;12.912;2023-07-29T11:14:00;1.52;;;1.42;;
41275;SDS011;27010;47.718;12.912;2023-07-29T11:17:02;1.73;;;1.25;;
41275;SDS011;27010;47.718;12.912;2023-07-29T11:20:06;1.98;;;1.58;;
41275;SDS011;27010;47.718;12.912;2023-07-29T11:23:09;1.60;;;1.35;;
41275;SDS011;27010;47.718;12.912;2023-07-29T11:26:11;2.30;;;1.48;;
41275;SDS011;27010;47.718;12.912;2023-07-29T11:29:15;1.45;;;1.27;;
41275;SDS011;27010;47.718;12.912;2023-07-29T11:32:17;1.45;;;1.35;;
41275;SDS011;27010;47.718;12.912;2023-07-29T11:35:20;1.90;;;1.35;;
41275;SDS011;27010;47.718;12.912;2023-07-29T11:38:22;1.90;;;1.55;;
41275;SDS011;27010;47.718;12.912;2023-07-29T11:41:25;1.75;;;1.20;;
41275;SDS011;27010;47.718;12.912;2023-07-29T11:44:27;1.58;;;1.48;;
41275;SDS011;27010;47.718;12.912;2023-07-29T11:47:30;3.55;;;1.77;;
41275;SDS011;27010;47.718;12.912;2023-07-29T11:50:32;3.92;;;2.38;;
41275;SDS011;27010;47.718;12.912;2023-07-29T11:53:34;1.95;;;1.52;;
41275;SDS011;27010;47.718;12.912;2023-07-29T11:56:36;1.80;;;1.50;;
41275;SDS011;27010;47.718;12.912;2023-07-29T11:59:39;1.52;;;1.33;;
41275;SDS011;27010;47.718;12.912;2023-07-29T12:02:42;2.10;;;1.52;;
41275;SDS011;27010;47.718;12.912;2023-07-29T12:05:48;1.70;;;1.40;;
41275;SDS011;27010;47.718;12.912;2023-07-29T12:08:50;1.98;;;1.40;;
41275;SDS011;27010;47.718;12.912;2023-07-29T12:11:54;2.35;;;1.60;;
41275;SDS011;27010;47.718;12.912;2023-07-29T12:14:57;3.17;;;1.60;;
41275;SDS011;27010;47.718;12.912;2023-07-29T12:17:59;2.30;;;1.52;;
41275;SDS011;27010;47.718;12.912;2023-07-29T12:21:02;1.60;;;1.45;;
41275;SDS011;27010;47.718;12.912;2023-07-29T12:24:04;3.33;;;1.98;;
41275;SDS011;27010;47.718;12.912;2023-07-29T12:27:13;1.63;;;1.52;;
41275;SDS011;27010;47.718;12.912;2023-07-29T12:30:23;2.15;;;1.95;;
41275;SDS011;27010;47.718;12.912;2023-07-29T12:33:32;2.05;;;1.73;;
41275;SDS011;27010;47.718;12.912;2023-07-29T12:36:41;2.20;;;2.00;;
41275;SDS011;27010;47.718;12.912;2023-07-29T12:39:44;2.50;;;2.00;;
41275;SDS011;27010;47.718;12.912;2023-07-29T12:42:47;2.58;;;1.98;;
41275;SDS011;27010;47.718;12.912;2023-07-29T12:45:49;3.00;;;1.60;;
41275;SDS011;27010;47.718;12.912;2023-07-29T12:48:51;1.83;;;1.73;;
41275;SDS011;27010;47.718;12.912;2023-07-29T12:51:53;2.22;;;1.98;;
41275;SDS011;27010;47.718;12.912;2023-07-29T12:54:56;2.30;;;1.80;;
41275;SDS011;27010;47.718;12.912;2023-07-29T12:57:58;1.67;;;1.58;;
41275;SDS011;27010;47.718;12.912;2023-07-29T13:01:01;3.63;;;2.20;;
41275;SDS011;27010;47.718;12.912;2023-07-29T13:04:04;2.70;;;2.10;;
41275;SDS011;27010;47.718;12.912;2023-07-29T13:07:06;2.05;;;1.58;;
41275;SDS011;27010;47.718;12.912;2023-07-29T13:10:09;2.95;;;1.52;;
41275;SDS011;27010;47.718;12.912;2023-07-29T13:13:12;3.08;;;1.92;;
41275;SDS011;27010;47.718;12.912;2023-07-29T13:16:14;2.85;;;1.80;;
41275;SDS011;27010;47.718;12.912;2023-07-29T13:19:16;2.38;;;1.90;;
41275;SDS011;27010;47.718;12.912;2023-07-29T13:22:20;1.70;;;1.50;;
41275;SDS011;27010;47.718;12.912;2023-07-29T13:25:23;2.17;;;1.90;;
41275;SDS011;27010;47.718;12.912;2023-07-29T13:28:25;1.95;;;1.75;;
41275;SDS011;27010;47.718;12.912;2023-07-29T13:31:27;3.35;;;1.88;;
41275;SDS011;27010;47.718;12.912;2023-07-29T13:34:30;1.95;;;1.60;;
41275;SDS011;27010;47.718;12.912;2023-07-29T13:37:36;1.95;;;1.73;;
41275;SDS011;27010;47.718;12.912;2023-07-29T13:40:38;2.03;;;1.20;;
41275;SDS011;27010;47.718;12.912;2023-07-29T13:43:40;2.67;;;1.42;;
41275;SDS011;27010;47.718;12.912;2023-07-29T13:46:42;1.10;;;1.00;;
41275;SDS011;27010;47.718;12.912;2023-07-29T13:49:44;1.42;;;1.10;;
41275;SDS011;27010;47.718;12.912;2023-07-29T13:52:46;1.20;;;1.10;;
41275;SDS011;27010;47.718;12.912;2023-07-29T13:55:48;3.80;;;1.48;;
41275;SDS011;27010;47.718;12.912;2023-07-29T13:58:50;2.10;;;1.40;;
41275;SDS011;27010;47.718;12.912;2023-07-29T14:01:52;1.55;;;1.45;;
41275;SDS011;27010;47.718;12.912;2023-07-29T14:04:55;2.10;;;1.13;;
41275;SDS011;27010;47.718;12.912;2023-07-29T14:07:57;2.35;;;1.67;;
41275;SDS011;27010;47.718;12.912;2023-07-29T14:11:00;2.83;;;1.30;;
41275;SDS011;27010;47.718;12.912;2023-07-29T14:14:02;2.03;;;1.48;;
41275;SDS011;27010;47.718;12.912;2023-07-29T14:17:04;2.38;;;1.58;;
41275;SDS011;27010;47.718;12.912;2023-07-29T14:20:07;3.60;;;1.73;;
41275;SDS011;27010;47.718;12.912;2023-07-29T14:23:10;1.40;;;1.30;;
41275;SDS011;27010;47.718;12.912;2023-07-29T14:26:12;1.98;;;1.67;;
41275;SDS011;27010;47.718;12.912;2023-07-29T14:29:14;1.75;;;1.42;;
41275;SDS011;27010;47.718;12.912;2023-07-29T14:32:16;1.95;;;1.48;;
41275;SDS011;27010;47.718;12.912;2023-07-29T14:35:21;1.15;;;1.00;;
41275;SDS011;27010;47.718;12.912;2023-07-29T14:38:23;1.45;;;1.35;;
41275;SDS011;27010;47.718;12.912;2023-07-29T14:41:25;1.70;;;1.30;;
41275;SDS011;27010;47.718;12.912;2023-07-29T14:44:27;2.45;;;1.58;;
41275;SDS011;27010;47.718;12.912;2023-07-29T14:47:29;1.50;;;1.40;;
41275;SDS011;27010;47.718;12.912;2023-07-29T14:50:36;2.92;;;1.48;;
41275;SDS011;27010;47.718;12.912;2023-07-29T14:53:38;1.55;;;1.30;;
41275;SDS011;27010;47.718;12.912;2023-07-29T14:56:41;2.10;;;1.40;;
41275;SDS011;27010;47.718;12.912;2023-07-29T14:59:42;2.95;;;1.23;;
41275;SDS011;27010;47.718;12.912;2023-07-29T15:02:45;1.85;;;1.67;;
41275;SDS011;27010;47.718;12.912;2023-07-29T15:05:47;3.17;;;1.50;;
41275;SDS011;27010;47.718;12.912;2023-07-29T15:08:50;1.95;;;1.58;;
41275;SDS011;27010;47.718;12.912;2023-07-29T15:11:51;1.65;;;1.55;;
41275;SDS011;27010;47.718;12.912;2023-07-29T15:14:53;1.52;;;1.30;;
41275;SDS011;27010;47.718;12.912;2023-07-29T15:17:55;2.05;;;1.85;;
41275;SDS011;27010;47.718;12.912;2023-07-29T15:20:58;3.17;;;1.45;;
41275;SDS011;27010;47.718;12.912;2023-07-29T15:24:03;2.22;;;1.75;;
41275;SDS011;27010;47.718;12.912;2023-07-29T15:27:06;1.85;;;1.58;;
41275;SDS011;27010;47.718;12.912;2023-07-29T15:43:15;1.70;;;1.30;;
41275;SDS011;27010;47.718;12.912;2023-07-29T15:46:17;1.83;;;1.33;;
41275;SDS011;27010;47.718;12.912;2023-07-29T15:49:20;1.83;;;1.13;;
41275;SDS011;27010;47.718;12.912;2023-07-29T15:52:22;2.17;;;1.43;;
41275;SDS011;27010;47.718;12.912;2023-07-29T15:55:24;3.27;;;1.77;;
41275;SDS011;27010;47.718;12.912;2023-07-29T15:58:26;1.77;;;1.50;;
41275;SDS011;27010;47.718;12.912;2023-07-29T16:01:28;3.03;;;2.00;;
41275;SDS011;27010;47.718;12.912;2023-07-29T16:04:30;3.97;;;2.17;;
41275;SDS011;27010;47.718;12.912;2023-07-29T16:07:33;2.67;;;1.47;;
41275;SDS011;27010;47.718;12.912;2023-07-29T16:10:36;2.03;;;1.63;;
41275;SDS011;27010;47.718;12.912;2023-07-29T16:13:38;2.67;;;1.63;;
41275;SDS011;27010;47.718;12.912;2023-07-29T16:16:40;2.50;;;1.83;;
41275;SDS011;27010;47.718;12.912;2023-07-29T16:19:55;4.53;;;1.77;;
41275;SDS011;27010;47.718;12.912;2023-07-29T16:22:58;3.63;;;1.90;;
41275;SDS011;27010;47.718;12.912;2023-07-29T16:26:01;3.03;;;1.47;;
41275;SDS011;27010;47.718;12.912;2023-07-29T16:29:02;3.93;;;1.80;;
41275;SDS011;27010;47.718;12.912;2023-07-29T16:32:06;4.57;;;2.37;;
41275;SDS011;27010;47.718;12.912;2023-07-29T16:35:09;4.57;;;3.50;;
41275;SDS011;27010;47.718;12.912;2023-07-29T16:38:11;2.53;;;1.80;;
41275;SDS011;27010;47.718;12.912;2023-07-29T16:41:13;9.40;;;2.80;;
41275;SDS011;27010;47.718;12.912;2023-07-29T16:44:20;7.57;;;4.13;;
41275;SDS011;27010;47.718;12.912;2023-07-29T16:47:22;4.37;;;3.40;;
41275;SDS011;27010;47.718;12.912;2023-07-29T16:50:25;5.67;;;3.83;;
41275;SDS011;27010;47.718;12.912;2023-07-29T16:53:27;5.87;;;3.70;;
41275;SDS011;27010;47.718;12.912;2023-07-29T16:56:29;7.23;;;5.07;;
41275;SDS011;27010;47.718;12.912;2023-07-29T16:59:31;6.03;;;3.73;;
41275;SDS011;27010;47.718;12.912;2023-07-29T17:02:33;4.47;;;3.20;;
41275;SDS011;27010;47.718;12.912;2023-07-29T17:05:35;6.50;;;4.27;;
41275;SDS011;27010;47.718;12.912;2023-07-29T17:08:38;3.77;;;2.50;;
41275;SDS011;27010;47.718;12.912;2023-07-29T17:11:40;3.87;;;2.50;;
41275;SDS011;27010;47.718;12.912;2023-07-29T17:14:42;2.90;;;1.97;;
41275;SDS011;27010;47.718;12.912;2023-07-29T17:17:45;4.93;;;3.33;;
41275;SDS011;27010;47.718;12.912;2023-07-29T17:20:47;1.97;;;1.60;;
41275;SDS011;27010;47.718;12.912;2023-07-29T17:23:49;3.07;;;1.80;;
41275;SDS011;27010;47.718;12.912;2023-07-29T17:26:51;3.43;;;2.53;;
41275;SDS011;27010;47.718;12.912;2023-07-29T17:29:54;3.57;;;2.33;;
41275;SDS011;27010;47.718;12.912;2023-07-29T17:32:56;3.23;;;1.90;;
41275;SDS011;27010;47.718;12.912;2023-07-29T17:36:00;2.70;;;2.00;;
41275;SDS011;27010;47.718;12.912;2023-07-29T17:39:02;2.67;;;1.30;;
41275;SDS011;27010;47.718;12.912;2023-07-29T17:42:04;1.60;;;1.50;;
41275;SDS011;27010;47.718;12.912;2023-07-29T17:45:08;1.40;;;1.20;;
41275;SDS011;27010;47.718;12.912;2023-07-29T17:48:10;2.87;;;1.60;;
41275;SDS011;27010;47.718;12.912;2023-07-29T17:51:12;1.77;;;1.40;;
41275;SDS011;27010;47.718;12.912;2023-07-29T17:54:14;4.13;;;1.70;;
41275;SDS011;27010;47.718;12.912;2023-07-29T17:57:16;1.73;;;1.60;;
41275;SDS011;27010;47.718;12.912;2023-07-29T18:00:20;3.00;;;1.63;;
41275;SDS011;27010;47.718;12.912;2023-07-29T18:03:22;2.57;;;1.40;;
41275;SDS011;27010;47.718;12.912;2023-07-29T18:06:24;1.97;;;1.57;;
41275;SDS011;27010;47.718;12.912;2023-07-29T18:09:26;1.60;;;1.50;;
41275;SDS011;27010;47.718;12.912;2023-07-29T18:12:28;2.00;;;1.60;;
41275;SDS011;27010;47.718;12.912;2023-07-29T18:15:30;1.50;;;1.30;;
41275;SDS011;27010;47.718;12.912;2023-07-29T18:18:33;2.50;;;1.70;;
41275;SDS011;27010;47.718;12.912;2023-07-29T18:21:35;1.87;;;1.70;;
41275;SDS011;27010;47.718;12.912;2023-07-29T18:24:37;2.47;;;1.50;;
41275;SDS011;27010;47.718;12.912;2023-07-29T18:27:38;1.60;;;1.50;;
41275;SDS011;27010;47.718;12.912;2023-07-29T18:30:41;5.67;;;1.70;;
41275;SDS011;27010;47.718;12.912;2023-07-29T18:33:44;1.93;;;1.60;;
41275;SDS011;27010;47.718;12.912;2023-07-29T18:36:46;2.60;;;2.00;;